Time;durP1;ratioP1;P1;durP2;ratioP2;P2;SDS_P1;SDS_P2;PMS_P1;PMS_P2;Temp;Humidity;BMP_temperature;BMP_pressure;BME280_temperature;BME280_humidity;BME280_pressure;Samples;Min_cycle;Max_cycle;Signal;HPM_P1;HPM_P2
2021/08/26 00:07:46;;;;;;;15.10;4.20;;;;;;;;;;5033507;28;20576;-57
2021/08/26 00:10:16;;;;;;;6.73;3.50;;;;;;;;;;5033204;28;20508;-57
2021/08/26 00:12:43;;;;;;;5.00;3.40;;;;;;;;;;5033381;28;20555;-57
2021/08/26 00:15:11;;;;;;;6.10;2.60;;;;;;;;;;5032898;28;20988;-57
2021/08/26 00:17:39;;;;;;;6.23;2.90;;;;;;;;;;5033125;28;20502;-57
2021/08/26 00:20:09;;;;;;;9.73;3.53;;;;;;;;;;5033307;28;20476;-57
2021/08/26 00:22:36;;;;;;;5.30;3.37;;;;;;;;;;5033253;28;20522;-57
2021/08/26 00:25:03;;;;;;;7.10;3.90;;;;;;;;;;5037306;28;20523;-58
2021/08/26 00:27:31;;;;;;;4.70;2.90;;;;;;;;;;5037255;28;20464;-57
2021/08/26 00:29:58;;;;;;;4.90;3.10;;;;;;;;;;5037325;28;20445;-57
2021/08/26 00:32:25;;;;;;;7.13;3.53;;;;;;;;;;5037184;28;20693;-57
2021/08/26 00:34:53;;;;;;;5.33;2.97;;;;;;;;;;5037495;28;20534;-57
2021/08/26 00:37:21;;;;;;;7.10;3.33;;;;;;;;;;5037338;28;20467;-57
2021/08/26 00:39:49;;;;;;;8.20;3.70;;;;;;;;;;5037344;28;20514;-57
2021/08/26 00:42:17;;;;;;;7.40;3.57;;;;;;;;;;5037534;28;20445;-57
2021/08/26 00:44:44;;;;;;;7.80;3.40;;;;;;;;;;5037824;28;20510;-58
2021/08/26 00:47:11;;;;;;;5.70;3.10;;;;;;;;;;5036967;28;20445;-57
2021/08/26 00:49:39;;;;;;;7.70;3.73;;;;;;;;;;5036978;28;20445;-57
2021/08/26 00:52:06;;;;;;;13.93;4.80;;;;;;;;;;5036588;28;20504;-57
2021/08/26 00:54:35;;;;;;;8.20;3.97;;;;;;;;;;5036400;28;20988;-57
2021/08/26 00:57:02;;;;;;;6.77;3.30;;;;;;;;;;5036673;28;20445;-57
2021/08/26 00:59:31;;;;;;;13.77;4.13;;;;;;;;;;5036692;28;20445;-57
2021/08/26 01:02:02;;;;;;;11.03;3.30;;;;;;;;;;5036772;28;20823;-57
2021/08/26 01:04:33;;;;;;;9.63;4.00;;;;;;;;;;5036158;28;20461;-57
2021/08/26 01:07:04;;;;;;;11.90;4.27;;;;;;;;;;5036519;28;20485;-57
2021/08/26 01:09:34;;;;;;;9.27;3.47;;;;;;;;;;5036228;28;20917;-57
2021/08/26 01:12:04;;;;;;;9.20;3.80;;;;;;;;;;5036436;28;20441;-57
2021/08/26 01:14:31;;;;;;;7.13;3.23;;;;;;;;;;5060238;22;20554;-59
2021/08/26 01:16:58;;;;;;;14.03;4.80;;;;;;;;;;5036275;28;20444;-60
2021/08/26 01:19:26;;;;;;;13.53;4.30;;;;;;;;;;5035937;28;20932;-60
2021/08/26 01:21:53;;;;;;;8.13;4.10;;;;;;;;;;5036203;28;20495;-60
2021/08/26 01:24:20;;;;;;;11.50;3.60;;;;;;;;;;5035798;28;20526;-60
2021/08/26 01:26:52;;;;;;;8.63;5.00;;;;;;;;;;5036547;28;20445;-60
2021/08/26 01:29:19;;;;;;;8.27;3.53;;;;;;;;;;5035998;28;20975;-60
2021/08/26 01:31:47;;;;;;;9.00;4.67;;;;;;;;;;5036089;28;20449;-60
2021/08/26 01:34:15;;;;;;;10.40;4.17;;;;;;;;;;5035808;28;20488;-61
2021/08/26 01:36:42;;;;;;;13.33;3.93;;;;;;;;;;5034912;28;20540;-60
2021/08/26 01:39:10;;;;;;;9.87;3.40;;;;;;;;;;5038243;28;20449;-60
2021/08/26 01:41:41;;;;;;;9.27;3.70;;;;;;;;;;5042882;28;20453;-60
2021/08/26 01:44:09;;;;;;;11.73;4.07;;;;;;;;;;5036042;28;20448;-61
2021/08/26 01:46:37;;;;;;;10.87;4.40;;;;;;;;;;5035876;28;20850;-60
2021/08/26 01:49:04;;;;;;;9.67;3.70;;;;;;;;;;5035707;28;20445;-59
2021/08/26 01:51:31;;;;;;;8.53;3.33;;;;;;;;;;5035711;28;20501;-61
2021/08/26 01:53:58;;;;;;;10.10;3.70;;;;;;;;;;5035692;28;20811;-62
2021/08/26 01:56:26;;;;;;;8.90;3.90;;;;;;;;;;5035424;28;20445;-61
2021/08/26 01:58:53;;;;;;;9.83;3.50;;;;;;;;;;5035707;28;20499;-60
2021/08/26 02:01:21;;;;;;;7.43;3.97;;;;;;;;;;5036348;28;20520;-60
2021/08/26 02:03:49;;;;;;;11.50;4.00;;;;;;;;;;5035574;28;20519;-60
2021/08/26 02:06:16;;;;;;;15.13;4.70;;;;;;;;;;5035464;28;20476;-61
2021/08/26 02:08:43;;;;;;;8.53;3.57;;;;;;;;;;5035094;28;20986;-61
2021/08/26 02:11:10;;;;;;;12.37;4.27;;;;;;;;;;5035409;28;20441;-61
2021/08/26 02:13:38;;;;;;;15.00;4.47;;;;;;;;;;5035226;28;20485;-60
2021/08/26 02:16:05;;;;;;;18.70;4.90;;;;;;;;;;5034808;28;21008;-60
2021/08/26 02:18:34;;;;;;;22.47;4.57;;;;;;;;;;5034917;28;20448;-60
2021/08/26 02:21:01;;;;;;;11.80;4.50;;;;;;;;;;5035192;28;20857;-60
2021/08/26 02:23:28;;;;;;;11.40;4.93;;;;;;;;;;5034810;28;20441;-60
2021/08/26 02:25:56;;;;;;;15.50;4.87;;;;;;;;;;5034962;28;20469;-60
2021/08/26 02:28:23;;;;;;;13.10;4.13;;;;;;;;;;5034751;28;20949;-60
2021/08/26 02:30:50;;;;;;;13.07;4.70;;;;;;;;;;5034871;28;20448;-60
2021/08/26 02:33:17;;;;;;;10.97;3.90;;;;;;;;;;5034893;28;20441;-61
2021/08/26 02:35:46;;;;;;;16.47;4.67;;;;;;;;;;5034708;28;20464;-61
2021/08/26 02:38:13;;;;;;;13.70;5.20;;;;;;;;;;5034563;28;20503;-61
2021/08/26 02:40:40;;;;;;;14.47;5.00;;;;;;;;;;5034527;28;20445;-61
2021/08/26 02:43:08;;;;;;;8.83;4.60;;;;;;;;;;5034836;28;20448;-61
2021/08/26 02:45:35;;;;;;;14.10;5.07;;;;;;;;;;5034286;28;20496;-60
2021/08/26 02:48:02;;;;;;;14.73;5.30;;;;;;;;;;5033346;28;20929;-60
2021/08/26 02:50:29;;;;;;;16.60;4.33;;;;;;;;;;5034682;28;20499;-60
2021/08/26 02:52:58;;;;;;;12.40;3.67;;;;;;;;;;5034569;28;20519;-60
2021/08/26 02:55:25;;;;;;;16.57;3.90;;;;;;;;;;5034306;28;20480;-61
2021/08/26 02:57:52;;;;;;;13.40;4.23;;;;;;;;;;5034424;28;20506;-60
2021/08/26 03:00:20;;;;;;;11.40;4.40;;;;;;;;;;5034419;28;20859;-60
2021/08/26 03:02:47;;;;;;;9.37;3.80;;;;;;;;;;5034077;28;20464;-60
2021/08/26 03:05:14;;;;;;;10.80;3.67;;;;;;;;;;5033868;28;20469;-61
2021/08/26 03:07:41;;;;;;;14.77;4.37;;;;;;;;;;5034229;28;20446;-60
2021/08/26 03:10:10;;;;;;;15.87;5.10;;;;;;;;;;5033819;28;20507;-60
2021/08/26 03:12:38;;;;;;;7.47;3.73;;;;;;;;;;5033891;28;20444;-60
2021/08/26 03:15:05;;;;;;;11.43;4.20;;;;;;;;;;5034727;28;20569;-60
2021/08/26 03:17:33;;;;;;;14.10;4.50;;;;;;;;;;5034347;28;20445;-60
2021/08/26 03:20:00;;;;;;;11.70;4.73;;;;;;;;;;5034038;28;20591;-59
2021/08/26 03:22:27;;;;;;;11.40;4.73;;;;;;;;;;5033653;28;20510;-60
2021/08/26 03:24:54;;;;;;;13.57;4.57;;;;;;;;;;5033892;28;20468;-60
2021/08/26 03:27:23;;;;;;;16.57;4.43;;;;;;;;;;5033871;28;20445;-60
2021/08/26 03:29:50;;;;;;;16.93;4.90;;;;;;;;;;5038389;28;20449;-60
2021/08/26 03:32:17;;;;;;;14.50;3.80;;;;;;;;;;5041760;28;20453;-60
2021/08/26 03:34:44;;;;;;;13.33;4.37;;;;;;;;;;5033462;28;20485;-60
2021/08/26 03:37:12;;;;;;;13.60;4.37;;;;;;;;;;5033709;28;20449;-57
2021/08/26 03:39:39;;;;;;;16.97;4.30;;;;;;;;;;5033777;28;20795;-60
2021/08/26 03:42:06;;;;;;;12.57;4.63;;;;;;;;;;5033380;28;20499;-59
2021/08/26 03:44:35;;;;;;;12.90;4.70;;;;;;;;;;5033722;28;20461;-59
2021/08/26 03:47:02;;;;;;;10.33;3.80;;;;;;;;;;5033560;28;20449;-58
2021/08/26 03:49:29;;;;;;;10.63;3.93;;;;;;;;;;5033509;28;20518;-59
2021/08/26 03:51:57;;;;;;;14.63;4.77;;;;;;;;;;5033310;28;20945;-61
2021/08/26 03:54:24;;;;;;;8.80;4.97;;;;;;;;;;5033349;28;20836;-60
2021/08/26 03:56:51;;;;;;;11.43;5.10;;;;;;;;;;5033551;28;20445;-60
2021/08/26 03:59:18;;;;;;;12.33;4.50;;;;;;;;;;5032954;28;20995;-60
2021/08/26 04:01:47;;;;;;;14.63;3.90;;;;;;;;;;5033277;28;20449;-60
2021/08/26 04:04:15;;;;;;;19.37;4.33;;;;;;;;;;5033536;28;20445;-59
2021/08/26 04:08:32;;;;;;;13.07;4.87;;;;;;;;;;5111980;27;20544;-60
2021/08/26 04:10:59;;;;;;;19.33;4.60;;;;;;;;;;5111248;28;20503;-60
2021/08/26 04:13:26;;;;;;;14.80;3.80;;;;;;;;;;5111430;28;20453;-61
2021/08/26 04:15:54;;;;;;;12.00;5.13;;;;;;;;;;5111315;28;20518;-61
2021/08/26 04:18:21;;;;;;;9.53;4.37;;;;;;;;;;5111256;28;20627;-61
2021/08/26 04:20:48;;;;;;;15.90;5.47;;;;;;;;;;5111420;28;20490;-60
2021/08/26 04:23:15;;;;;;;10.37;4.30;;;;;;;;;;5110724;28;20933;-61
2021/08/26 04:25:44;;;;;;;12.80;4.07;;;;;;;;;;5110835;28;20540;-61
2021/08/26 04:28:11;;;;;;;10.30;4.63;;;;;;;;;;5111409;28;20489;-59
2021/08/26 04:30:38;;;;;;;16.17;5.23;;;;;;;;;;5110847;28;20442;-61
2021/08/26 04:33:06;;;;;;;10.73;4.07;;;;;;;;;;5110576;28;20853;-60
2021/08/26 04:35:33;;;;;;;10.23;4.80;;;;;;;;;;5111392;28;20862;-62
2021/08/26 04:38:00;;;;;;;13.77;4.77;;;;;;;;;;5110404;28;20433;-60
2021/08/26 04:40:28;;;;;;;11.83;4.37;;;;;;;;;;5110433;28;20450;-61
2021/08/26 04:42:56;;;;;;;14.17;4.83;;;;;;;;;;5110943;28;20502;-60
2021/08/26 04:45:24;;;;;;;14.93;4.60;;;;;;;;;;5110561;28;20458;-60
2021/08/26 04:47:51;;;;;;;11.13;4.87;;;;;;;;;;5110777;28;20478;-60
2021/08/26 04:50:18;;;;;;;14.07;4.53;;;;;;;;;;5110640;28;20446;-61
2021/08/26 04:52:45;;;;;;;12.17;4.87;;;;;;;;;;5110194;28;20442;-62
2021/08/26 04:55:13;;;;;;;13.83;4.67;;;;;;;;;;5110668;28;20457;-61
2021/08/26 04:57:40;;;;;;;13.20;4.70;;;;;;;;;;5110244;28;20436;-60
2021/08/26 05:00:09;;;;;;;15.13;4.83;;;;;;;;;;5111663;28;20449;-61
2021/08/26 05:02:37;;;;;;;16.30;5.37;;;;;;;;;;5111140;28;20518;-61
2021/08/26 05:05:04;;;;;;;10.70;4.20;;;;;;;;;;5110862;28;20542;-60
2021/08/26 05:07:31;;;;;;;17.00;4.10;;;;;;;;;;5110255;28;20485;-59
2021/08/26 05:09:59;;;;;;;8.50;4.50;;;;;;;;;;5110665;28;20442;-61
2021/08/26 05:12:26;;;;;;;16.60;4.13;;;;;;;;;;5110321;28;20499;-59
2021/08/26 05:14:53;;;;;;;12.77;4.67;;;;;;;;;;5110204;28;20465;-59
2021/08/26 05:17:22;;;;;;;19.53;6.67;;;;;;;;;;5110091;28;21007;-61
2021/08/26 05:19:49;;;;;;;15.50;4.20;;;;;;;;;;5096860;28;20442;-60
2021/08/26 05:22:16;;;;;;;20.23;4.63;;;;;;;;;;5096544;28;20438;-60
2021/08/26 05:24:44;;;;;;;16.20;4.10;;;;;;;;;;5104472;28;20543;-59
2021/08/26 05:27:11;;;;;;;12.60;4.53;;;;;;;;;;5108389;28;20566;-59
2021/08/26 05:29:38;;;;;;;18.93;5.93;;;;;;;;;;5097466;28;20499;-60
2021/08/26 05:32:06;;;;;;;11.33;4.53;;;;;;;;;;5096000;28;20446;-60
2021/08/26 05:34:34;;;;;;;10.63;5.10;;;;;;;;;;5096054;28;20523;-60
2021/08/26 05:37:02;;;;;;;9.73;4.47;;;;;;;;;;5096324;28;20562;-59
2021/08/26 05:39:29;;;;;;;20.47;5.30;;;;;;;;;;5095782;28;20812;-58
2021/08/26 05:41:57;;;;;;;16.73;5.30;;;;;;;;;;5096009;28;20438;-61
2021/08/26 05:44:24;;;;;;;15.47;5.33;;;;;;;;;;5095781;28;20556;-61
2021/08/26 05:46:51;;;;;;;12.87;4.33;;;;;;;;;;5095767;28;20533;-59
2021/08/26 05:49:18;;;;;;;14.37;4.73;;;;;;;;;;5095945;28;20450;-60
2021/08/26 05:51:47;;;;;;;9.60;5.00;;;;;;;;;;5095545;28;20868;-60
2021/08/26 05:54:14;;;;;;;14.47;4.53;;;;;;;;;;5095858;28;20523;-59
2021/08/26 05:56:42;;;;;;;10.97;4.80;;;;;;;;;;5095620;28;20446;-60
2021/08/26 05:59:09;;;;;;;15.23;4.63;;;;;;;;;;5095461;28;20447;-61
2021/08/26 06:01:36;;;;;;;14.93;5.00;;;;;;;;;;5095365;28;20946;-61
2021/08/26 06:04:03;;;;;;;19.57;5.80;;;;;;;;;;5095376;28;20499;-59
2021/08/26 06:06:30;;;;;;;16.10;5.93;;;;;;;;;;5094216;28;20440;-61
2021/08/26 06:08:59;;;;;;;18.33;5.00;;;;;;;;;;5095687;28;20204;-60
2021/08/26 06:11:26;;;;;;;12.57;4.63;;;;;;;;;;5096545;28;20451;-59
2021/08/26 06:13:54;;;;;;;21.97;5.03;;;;;;;;;;5095494;28;20500;-60
2021/08/26 06:16:21;;;;;;;15.47;5.67;;;;;;;;;;5095258;28;20470;-61
2021/08/26 06:18:48;;;;;;;14.63;5.60;;;;;;;;;;5096905;28;20446;-61
2021/08/26 06:21:16;;;;;;;23.23;7.03;;;;;;;;;;5100806;28;20450;-61
2021/08/26 06:23:44;;;;;;;15.53;5.60;;;;;;;;;;5100895;28;20473;-61
2021/08/26 06:26:12;;;;;;;11.13;4.97;;;;;;;;;;5099942;28;20957;-61
2021/08/26 06:28:39;;;;;;;14.03;5.40;;;;;;;;;;5097320;28;20551;-61
2021/08/26 06:31:07;;;;;;;16.80;5.77;;;;;;;;;;5094302;28;20809;-61
2021/08/26 06:33:34;;;;;;;18.43;5.97;;;;;;;;;;5094935;28;20507;-62
2021/08/26 06:36:01;;;;;;;16.10;5.37;;;;;;;;;;5094847;28;20519;-61
2021/08/26 06:38:29;;;;;;;15.90;5.30;;;;;;;;;;5095259;28;20495;-61
2021/08/26 06:40:56;;;;;;;14.17;5.40;;;;;;;;;;5094954;28;20447;-62
2021/08/26 06:43:25;;;;;;;15.57;5.70;;;;;;;;;;5095007;28;20476;-61
2021/08/26 06:45:52;;;;;;;14.77;5.50;;;;;;;;;;5094491;28;20549;-61
2021/08/26 06:48:19;;;;;;;17.93;7.10;;;;;;;;;;5096446;28;20482;-61
2021/08/26 06:50:47;;;;;;;17.60;6.50;;;;;;;;;;5094568;28;20503;-62
2021/08/26 06:53:14;;;;;;;12.47;6.40;;;;;;;;;;5094468;28;20453;-61
2021/08/26 06:55:42;;;;;;;17.37;6.33;;;;;;;;;;5094111;28;20522;-61
2021/08/26 06:58:09;;;;;;;18.70;7.20;;;;;;;;;;5094937;28;20443;-62
2021/08/26 07:00:38;;;;;;;18.73;5.90;;;;;;;;;;5094248;28;20466;-62
2021/08/26 07:03:05;;;;;;;20.33;6.70;;;;;;;;;;5094225;28;20998;-61
2021/08/26 07:05:32;;;;;;;12.87;5.33;;;;;;;;;;5094624;28;20886;-59
2021/08/26 07:07:59;;;;;;;11.77;5.00;;;;;;;;;;5097590;28;20486;-61
2021/08/26 07:10:27;;;;;;;13.20;6.10;;;;;;;;;;5099411;28;20465;-61
2021/08/26 07:12:54;;;;;;;15.00;7.03;;;;;;;;;;5096072;28;20503;-60
2021/08/26 07:15:24;;;;;;;22.00;6.60;;;;;;;;;;5094223;28;20424;-61
2021/08/26 07:17:53;;;;;;;15.37;5.33;;;;;;;;;;5094900;28;20549;-61
2021/08/26 07:22:48;;;;;;;19.70;5.93;;;;;;;;;;5060286;22;20488;-54
2021/08/26 07:25:15;;;;;;;14.17;5.60;;;;;;;;;;5033629;28;20440;-55
2021/08/26 07:27:43;;;;;;;12.77;6.00;;;;;;;;;;5033482;28;20487;-55
2021/08/26 07:30:10;;;;;;;15.07;6.60;;;;;;;;;;5033392;28;20880;-55
2021/08/26 07:32:37;;;;;;;13.40;5.60;;;;;;;;;;5033472;28;20479;-55
2021/08/26 07:35:07;;;;;;;16.43;6.27;;;;;;;;;;5033512;28;20445;-54
2021/08/26 07:37:34;;;;;;;14.07;6.10;;;;;;;;;;5033341;28;20445;-54
2021/08/26 07:40:01;;;;;;;17.70;5.93;;;;;;;;;;5033672;28;20449;-55
2021/08/26 07:42:28;;;;;;;21.07;7.23;;;;;;;;;;5032934;28;20538;-54
2021/08/26 07:45:02;;;;;;;17.00;5.90;;;;;;;;;;5033422;28;20507;-55
2021/08/26 07:47:29;;;;;;;19.33;7.10;;;;;;;;;;5033262;28;20833;-55
2021/08/26 07:49:56;;;;;;;14.93;6.40;;;;;;;;;;5033362;28;20530;-56
2021/08/26 07:52:25;;;;;;;15.47;7.10;;;;;;;;;;5032728;28;20469;-55
2021/08/26 07:54:52;;;;;;;13.20;5.83;;;;;;;;;;5032946;28;20859;-55
2021/08/26 07:57:19;;;;;;;14.87;6.57;;;;;;;;;;5032800;28;20511;-55
2021/08/26 07:59:47;;;;;;;17.97;6.50;;;;;;;;;;5033079;28;20440;-55
2021/08/26 08:02:14;;;;;;;14.93;6.20;;;;;;;;;;5033281;28;20465;-55
2021/08/26 08:04:41;;;;;;;17.27;6.80;;;;;;;;;;5033028;28;20456;-55
2021/08/26 08:07:08;;;;;;;15.10;6.27;;;;;;;;;;5033422;28;20476;-55
2021/08/26 08:09:37;;;;;;;14.90;5.97;;;;;;;;;;5033109;28;20534;-56
2021/08/26 08:12:05;;;;;;;11.90;5.30;;;;;;;;;;5032754;28;20472;-55
2021/08/26 08:14:32;;;;;;;15.50;6.07;;;;;;;;;;5032901;28;20441;-55
2021/08/26 08:16:59;;;;;;;24.70;9.00;;;;;;;;;;5032893;28;20440;-55
2021/08/26 08:19:27;;;;;;;11.60;6.47;;;;;;;;;;5032600;28;20445;-55
2021/08/26 08:21:54;;;;;;;11.03;6.03;;;;;;;;;;5032174;28;20477;-55
2021/08/26 08:24:22;;;;;;;15.80;6.37;;;;;;;;;;5032783;28;20514;-55
2021/08/26 08:26:50;;;;;;;12.60;5.80;;;;;;;;;;5032439;28;20441;-55
2021/08/26 08:29:17;;;;;;;13.77;6.20;;;;;;;;;;5032393;28;20500;-55
2021/08/26 08:31:45;;;;;;;15.27;7.10;;;;;;;;;;5032660;28;20518;-55
2021/08/26 08:34:12;;;;;;;22.83;7.93;;;;;;;;;;5032857;28;20519;-54
2021/08/26 08:36:39;;;;;;;19.97;7.30;;;;;;;;;;5032737;28;20445;-55
2021/08/26 08:39:06;;;;;;;12.00;6.10;;;;;;;;;;5032821;28;20453;-55
2021/08/26 08:41:34;;;;;;;16.40;7.07;;;;;;;;;;5032700;28;20526;-55
2021/08/26 08:44:03;;;;;;;17.40;7.53;;;;;;;;;;5032731;28;20445;-55
2021/08/26 08:46:30;;;;;;;15.90;6.50;;;;;;;;;;5032816;28;20441;-55
2021/08/26 08:48:58;;;;;;;20.80;7.07;;;;;;;;;;5032558;28;20480;-55
2021/08/26 08:51:25;;;;;;;20.10;7.47;;;;;;;;;;5032553;28;20469;-56
2021/08/26 08:53:52;;;;;;;13.33;6.60;;;;;;;;;;5033551;28;20475;-56
2021/08/26 08:56:22;;;;;;;17.37;7.63;;;;;;;;;;5036056;28;20528;-55
2021/08/26 08:58:49;;;;;;;15.50;7.10;;;;;;;;;;5036614;28;20480;-56
2021/08/26 09:01:18;;;;;;;11.33;6.77;;;;;;;;;;5036101;28;20889;-55
2021/08/26 09:03:45;;;;;;;15.57;7.50;;;;;;;;;;5036202;28;20518;-56
2021/08/26 09:06:12;;;;;;;17.43;7.73;;;;;;;;;;5035975;28;20957;-55
2021/08/26 09:08:39;;;;;;;19.47;8.60;;;;;;;;;;5035631;28;20526;-56
2021/08/26 09:11:10;;;;;;;14.80;6.10;;;;;;;;;;5035901;28;20464;-55
2021/08/26 09:13:38;;;;;;;16.40;6.67;;;;;;;;;;5035799;28;20452;-55
2021/08/26 09:16:05;;;;;;;12.17;6.80;;;;;;;;;;5036640;28;20523;-56
2021/08/26 09:18:34;;;;;;;13.67;6.87;;;;;;;;;;5035907;28;20441;-56
2021/08/26 09:21:02;;;;;;;10.40;6.60;;;;;;;;;;5035616;28;20539;-55
2021/08/26 09:23:30;;;;;;;11.37;7.20;;;;;;;;;;5035729;28;20436;-55
2021/08/26 09:26:12;;;;;;;14.87;6.40;;;;;;;;;;5035456;28;20448;-55
2021/08/26 09:28:40;;;;;;;13.30;5.40;;;;;;;;;;5035256;28;20535;-56
2021/08/26 09:31:11;;;;;;;16.73;6.70;;;;;;;;;;5035384;28;21026;-55
2021/08/26 09:33:53;;;;;;;14.00;5.80;;;;;;;;;;5035437;28;20453;-55
2021/08/26 09:36:22;;;;;;;17.57;6.70;;;;;;;;;;5035819;28;20483;-55
2021/08/26 09:38:54;;;;;;;17.53;5.53;;;;;;;;;;5035525;28;20445;-55
2021/08/26 09:41:41;;;;;;;9.93;5.17;;;;;;;;;;5035249;28;20469;-56
2021/08/26 09:44:09;;;;;;;15.10;5.23;;;;;;;;;;5035093;28;20909;-55
2021/08/26 09:46:37;;;;;;;10.63;5.80;;;;;;;;;;5035745;28;20444;-55
2021/08/26 09:49:06;;;;;;;11.93;5.50;;;;;;;;;;5035468;28;20890;-56
2021/08/26 09:51:33;;;;;;;15.97;6.57;;;;;;;;;;5035159;28;20469;-55
2021/08/26 09:54:01;;;;;;;10.47;5.47;;;;;;;;;;5034983;28;20445;-55
2021/08/26 09:56:39;;;;;;;12.80;6.10;;;;;;;;;;5035327;28;20499;-55
2021/08/26 09:59:06;;;;;;;12.03;5.20;;;;;;;;;;5034798;28;20487;-55
2021/08/26 10:01:36;;;;;;;11.67;5.27;;;;;;;;;;5035020;28;20468;-55
2021/08/26 10:04:26;;;;;;;13.10;5.60;;;;;;;;;;5034818;28;20429;-55
2021/08/26 10:06:53;;;;;;;12.87;5.63;;;;;;;;;;5034888;28;20461;-55
2021/08/26 10:09:21;;;;;;;13.93;5.77;;;;;;;;;;5034579;28;20584;-55
2021/08/26 10:11:48;;;;;;;10.63;5.03;;;;;;;;;;5034732;28;20464;-54
2021/08/26 10:14:16;;;;;;;12.90;5.33;;;;;;;;;;5034348;28;20452;-56
2021/08/26 10:16:44;;;;;;;13.10;5.60;;;;;;;;;;5034607;28;20473;-56
2021/08/26 10:19:16;;;;;;;9.80;5.07;;;;;;;;;;5034558;28;20506;-56
2021/08/26 10:21:43;;;;;;;12.23;6.67;;;;;;;;;;5034284;28;20484;-55
2021/08/26 10:24:11;;;;;;;14.27;7.10;;;;;;;;;;5034429;28;20807;-55
2021/08/26 10:26:39;;;;;;;13.90;6.30;;;;;;;;;;5034278;28;20563;-55
2021/08/26 10:29:07;;;;;;;10.07;5.10;;;;;;;;;;5034352;28;20575;-55
2021/08/26 10:31:36;;;;;;;12.90;6.37;;;;;;;;;;5033989;28;20901;-55
2021/08/26 10:34:26;;;;;;;13.13;4.90;;;;;;;;;;5033864;28;20932;-54
2021/08/26 10:37:12;;;;;;;6.63;4.80;;;;;;;;;;5029097;28;20456;-56
2021/08/26 10:39:41;;;;;;;8.63;5.37;;;;;;;;;;5034694;28;20987;-55
2021/08/26 10:42:29;;;;;;;11.23;6.80;;;;;;;;;;5033752;28;20963;-55
2021/08/26 10:45:00;;;;;;;10.83;6.50;;;;;;;;;;5034128;28;20445;-55
2021/08/26 10:47:42;;;;;;;12.33;7.80;;;;;;;;;;5034145;28;20437;-55
2021/08/26 10:50:17;;;;;;;23.37;9.80;;;;;;;;;;5033808;28;20464;-55
2021/08/26 10:52:56;;;;;;;12.60;9.10;;;;;;;;;;5033559;28;20468;-55
2021/08/26 10:55:32;;;;;;;12.70;7.40;;;;;;;;;;5033753;28;20441;-56
2021/08/26 10:58:14;;;;;;;14.10;7.40;;;;;;;;;;5033906;28;20536;-53
2021/08/26 11:00:42;;;;;;;10.60;7.00;;;;;;;;;;5033408;28;20460;-55
2021/08/26 11:03:09;;;;;;;9.30;5.80;;;;;;;;;;5033407;28;20449;-55
2021/08/26 11:05:37;;;;;;;7.00;4.13;;;;;;;;;;5033573;28;20449;-55
2021/08/26 11:08:27;;;;;;;6.60;4.20;;;;;;;;;;5033201;28;20941;-56
2021/08/26 11:10:55;;;;;;;7.10;4.43;;;;;;;;;;5033137;28;20526;-55
2021/08/26 11:13:29;;;;;;;11.20;5.13;;;;;;;;;;5033238;28;20495;-55
2021/08/26 11:15:57;;;;;;;6.80;4.80;;;;;;;;;;5032544;28;20437;-55
2021/08/26 11:18:28;;;;;;;10.50;5.57;;;;;;;;;;5033214;28;20498;-56
2021/08/26 11:20:56;;;;;;;8.83;5.20;;;;;;;;;;5033288;28;20508;-55
2021/08/26 11:23:43;;;;;;;16.97;6.10;;;;;;;;;;5033080;28;20429;-56
2021/08/26 11:26:26;;;;;;;9.33;5.27;;;;;;;;;;5033293;28;20429;-55
2021/08/26 11:28:54;;;;;;;13.57;6.07;;;;;;;;;;5032923;28;20987;-55
2021/08/26 11:31:22;;;;;;;13.43;5.30;;;;;;;;;;5033378;28;20465;-55
2021/08/26 11:33:50;;;;;;;8.43;3.73;;;;;;;;;;5032917;28;20503;-55
2021/08/26 11:36:18;;;;;;;9.20;4.23;;;;;;;;;;5033334;28;20503;-55
2021/08/26 11:38:49;;;;;;;6.63;3.10;;;;;;;;;;5032904;28;20987;-56
2021/08/26 11:41:16;;;;;;;5.90;2.83;;;;;;;;;;5033102;28;20473;-57
2021/08/26 11:43:44;;;;;;;3.33;2.20;;;;;;;;;;5033032;28;20820;-55
2021/08/26 11:46:13;;;;;;;3.10;1.77;;;;;;;;;;5033069;28;20507;-54
2021/08/26 11:48:50;;;;;;;3.50;2.20;;;;;;;;;;5032846;28;20495;-55
2021/08/26 11:51:25;;;;;;;7.70;1.90;;;;;;;;;;5032864;28;20465;-56
2021/08/26 11:53:52;;;;;;;5.63;2.50;;;;;;;;;;5032886;28;20512;-54
2021/08/26 11:56:20;;;;;;;6.80;2.07;;;;;;;;;;5032384;28;20487;-55
2021/08/26 11:58:47;;;;;;;5.83;2.63;;;;;;;;;;5033972;28;20535;-55
2021/08/26 12:01:23;;;;;;;4.20;2.00;;;;;;;;;;5032464;28;20552;-56
2021/08/26 12:03:58;;;;;;;6.97;2.10;;;;;;;;;;5033083;28;20432;-56
2021/08/26 12:06:26;;;;;;;2.40;1.90;;;;;;;;;;5032728;28;20952;-56
2021/08/26 12:08:53;;;;;;;5.80;1.93;;;;;;;;;;5032454;28;20970;-56
2021/08/26 12:11:27;;;;;;;3.97;2.00;;;;;;;;;;5032800;28;20487;-56
2021/08/26 12:14:06;;;;;;;3.37;1.60;;;;;;;;;;5032875;28;20499;-56
2021/08/26 12:16:34;;;;;;;4.10;1.63;;;;;;;;;;5032162;28;20523;-56
2021/08/26 12:19:03;;;;;;;4.93;2.00;;;;;;;;;;5032995;28;20874;-56
2021/08/26 12:21:31;;;;;;;4.93;1.83;;;;;;;;;;5032400;28;20510;-56
2021/08/26 12:23:58;;;;;;;3.90;2.13;;;;;;;;;;5032811;28;20510;-56
2021/08/26 12:26:25;;;;;;;2.93;1.70;;;;;;;;;;5032807;28;20449;-56
2021/08/26 12:28:57;;;;;;;2.73;1.87;;;;;;;;;;5033994;28;20580;-56
2021/08/26 12:31:25;;;;;;;4.60;1.80;;;;;;;;;;5036995;28;20460;-56
2021/08/26 12:34:03;;;;;;;4.10;1.70;;;;;;;;;;5036495;28;20453;-56
2021/08/26 12:36:31;;;;;;;6.33;2.10;;;;;;;;;;5036610;28;20467;-56
2021/08/26 12:38:58;;;;;;;3.37;1.80;;;;;;;;;;5037404;28;20503;-56
2021/08/26 12:41:26;;;;;;;6.53;2.00;;;;;;;;;;5036166;28;21058;-58
2021/08/26 12:43:54;;;;;;;2.60;1.83;;;;;;;;;;5036418;28;20449;-56
2021/08/26 12:46:23;;;;;;;5.43;2.00;;;;;;;;;;5036180;28;20567;-56
2021/08/26 12:48:51;;;;;;;5.33;1.97;;;;;;;;;;5036122;28;20554;-56
2021/08/26 12:51:21;;;;;;;3.60;1.27;;;;;;;;;;5036132;28;21019;-56
2021/08/26 12:53:49;;;;;;;2.70;1.00;;;;;;;;;;5036376;28;20433;-56
2021/08/26 12:56:17;;;;;;;2.30;1.13;;;;;;;;;;5036192;28;20864;-55
2021/08/26 12:59:02;;;;;;;3.17;1.00;;;;;;;;;;5036363;28;20507;-54
2021/08/26 13:01:29;;;;;;;7.27;1.10;;;;;;;;;;5036257;28;20469;-55
2021/08/26 13:03:57;;;;;;;2.00;1.00;;;;;;;;;;5036307;28;20526;-59
2021/08/26 13:06:36;;;;;;;3.63;0.90;;;;;;;;;;5036338;28;20444;-56
2021/08/26 13:09:07;;;;;;;2.73;1.10;;;;;;;;;;5037165;28;20526;-55
2021/08/26 13:11:35;;;;;;;2.70;0.83;;;;;;;;;;5036490;28;20523;-55
2021/08/26 13:14:02;;;;;;;1.70;0.80;;;;;;;;;;5036111;28;20445;-55
2021/08/26 13:16:30;;;;;;;2.87;0.70;;;;;;;;;;5035938;28;20945;-55
2021/08/26 13:18:57;;;;;;;2.03;0.90;;;;;;;;;;5035810;28;20448;-56
2021/08/26 13:21:24;;;;;;;2.60;0.50;;;;;;;;;;5061651;22;20535;-59
2021/08/26 13:23:53;;;;;;;1.43;0.63;;;;;;;;;;5039835;28;20426;-59
2021/08/26 13:26:21;;;;;;;1.20;0.70;;;;;;;;;;5035991;28;20499;-61
2021/08/26 13:28:48;;;;;;;1.23;0.50;;;;;;;;;;5035657;28;20541;-59
2021/08/26 13:31:15;;;;;;;2.10;0.87;;;;;;;;;;5035231;28;20492;-60
2021/08/26 13:33:42;;;;;;;2.60;0.70;;;;;;;;;;5035390;28;20463;-60
2021/08/26 13:36:11;;;;;;;2.43;0.60;;;;;;;;;;5035862;28;20445;-61
2021/08/26 13:38:38;;;;;;;2.53;0.93;;;;;;;;;;5035714;28;20503;-59
2021/08/26 13:41:07;;;;;;;1.70;0.60;;;;;;;;;;5035072;28;20441;-61
2021/08/26 13:43:34;;;;;;;2.60;0.80;;;;;;;;;;5035331;28;20940;-61
2021/08/26 13:46:01;;;;;;;3.40;1.10;;;;;;;;;;5036214;28;20448;-58
2021/08/26 13:48:29;;;;;;;2.07;0.90;;;;;;;;;;5035749;28;20441;-59
2021/08/26 13:50:56;;;;;;;2.43;0.70;;;;;;;;;;5035214;28;20477;-60
2021/08/26 13:53:23;;;;;;;5.20;0.70;;;;;;;;;;5035215;28;20530;-60
2021/08/26 13:55:50;;;;;;;1.77;0.80;;;;;;;;;;5035303;28;20526;-59
2021/08/26 13:58:19;;;;;;;2.80;0.90;;;;;;;;;;5034597;28;20983;-58
2021/08/26 14:00:46;;;;;;;3.10;0.80;;;;;;;;;;5035143;28;20445;-60
2021/08/26 14:03:13;;;;;;;1.63;0.80;;;;;;;;;;5034558;28;20980;-60
2021/08/26 14:05:41;;;;;;;1.30;0.80;;;;;;;;;;5034411;28;20445;-60
2021/08/26 14:08:08;;;;;;;6.77;0.90;;;;;;;;;;5035066;28;20528;-61
2021/08/26 14:10:35;;;;;;;4.60;0.90;;;;;;;;;;5034839;28;20528;-60
2021/08/26 14:13:04;;;;;;;1.93;0.80;;;;;;;;;;5034888;28;20473;-59
2021/08/26 14:15:32;;;;;;;2.00;0.70;;;;;;;;;;5034851;28;20460;-59
2021/08/26 14:18:00;;;;;;;4.17;0.87;;;;;;;;;;5034964;28;20437;-59
2021/08/26 14:20:27;;;;;;;2.10;0.70;;;;;;;;;;5034808;28;20449;-59
2021/08/26 14:22:54;;;;;;;3.00;1.00;;;;;;;;;;5034476;28;20985;-60
2021/08/26 14:25:21;;;;;;;2.30;1.00;;;;;;;;;;5035554;28;20453;-59
2021/08/26 14:27:49;;;;;;;1.93;0.90;;;;;;;;;;5035515;28;20540;-61
2021/08/26 14:30:16;;;;;;;1.70;0.77;;;;;;;;;;5035604;28;21019;-59
2021/08/26 14:32:44;;;;;;;1.70;0.67;;;;;;;;;;5035993;28;20658;-59
2021/08/26 14:35:12;;;;;;;1.87;0.70;;;;;;;;;;5035628;28;21022;-59
2021/08/26 14:37:39;;;;;;;3.33;0.90;;;;;;;;;;5034937;28;20938;-60
2021/08/26 14:40:07;;;;;;;3.33;0.93;;;;;;;;;;5034639;28;20433;-59
2021/08/26 14:42:34;;;;;;;3.87;0.80;;;;;;;;;;5034835;28;21059;-60
2021/08/26 14:45:01;;;;;;;4.60;0.70;;;;;;;;;;5034523;28;20449;-59
2021/08/26 14:47:30;;;;;;;2.13;0.90;;;;;;;;;;5036198;28;20452;-58
2021/08/26 14:49:59;;;;;;;2.90;0.90;;;;;;;;;;5036968;28;20476;-60
2021/08/26 14:52:26;;;;;;;1.57;0.63;;;;;;;;;;5035337;28;20476;-60
2021/08/26 14:54:53;;;;;;;1.53;0.90;;;;;;;;;;5035348;28;20503;-59